createdAt,value
2022-09-26T00:01:21.456Z,10.99
2022-09-26T00:03:53.884Z,11.00
2022-09-26T00:06:21.409Z,11.03
2022-09-26T00:08:49.615Z,11.06
2022-09-26T00:11:19.643Z,11.08
2022-09-26T00:13:46.926Z,11.08
2022-09-26T00:16:15.438Z,11.10
2022-09-26T00:18:42.093Z,11.10
2022-09-26T00:21:13.601Z,11.12
2022-09-26T00:23:41.997Z,11.13
2022-09-26T00:26:09.905Z,11.13
2022-09-26T00:28:37.161Z,11.16
2022-09-26T00:31:13.736Z,11.17
2022-09-26T00:33:40.581Z,11.18
2022-09-26T00:36:07.865Z,11.18
2022-09-26T00:38:35.331Z,11.17
2022-09-26T00:41:02.627Z,11.15
2022-09-26T00:43:38.635Z,11.16
2022-09-26T00:46:44.156Z,11.13
2022-09-26T00:49:31.477Z,11.11
2022-09-26T00:52:04.710Z,11.09
2022-09-26T00:54:32.377Z,11.10
2022-09-26T00:57:05.662Z,11.11
2022-09-26T00:59:43.684Z,11.10
2022-09-26T01:02:11.432Z,11.09
2022-09-26T01:04:41.464Z,11.10
2022-09-26T01:07:14.319Z,11.10
2022-09-26T01:09:41.069Z,11.10
2022-09-26T01:12:08.998Z,11.10
2022-09-26T01:14:36.053Z,11.09
2022-09-26T01:17:03.573Z,11.07
2022-09-26T01:19:44.821Z,11.07
2022-09-26T01:22:44.487Z,11.08
2022-09-26T01:25:23.721Z,11.08
2022-09-26T01:28:24.398Z,11.07
2022-09-26T01:31:09.737Z,11.06
2022-09-26T01:33:49.693Z,11.05
2022-09-26T01:36:32.777Z,11.04
2022-09-26T01:39:13.423Z,11.04
2022-09-26T01:41:49.007Z,11.03
2022-09-26T01:44:18.575Z,11.03
2022-09-26T01:46:54.289Z,11.02
2022-09-26T01:49:37.501Z,11.02
2022-09-26T01:52:19.946Z,11.02
2022-09-26T01:54:52.676Z,11.03
2022-09-26T01:57:30.021Z,11.02
2022-09-26T02:00:04.139Z,11.01
2022-09-26T02:02:36.139Z,11.02
2022-09-26T02:05:18.459Z,11.03
2022-09-26T02:07:54.829Z,11.02
2022-09-26T02:10:36.632Z,11.01
2022-09-26T02:13:11.383Z,11.01
2022-09-26T02:15:40.463Z,11.01
2022-09-26T02:18:17.812Z,11.00
2022-09-26T02:20:51.682Z,11.00
2022-09-26T02:23:18.270Z,10.99
2022-09-26T02:25:44.824Z,10.99
2022-09-26T02:28:11.396Z,10.97
2022-09-26T02:30:39.399Z,10.96
2022-09-26T02:33:05.935Z,10.96
2022-09-26T02:35:50.920Z,10.95
2022-09-26T02:38:17.436Z,10.93
2022-09-26T02:40:52.204Z,10.93
2022-09-26T02:43:25.785Z,10.91
2022-09-26T02:46:15.216Z,10.88
2022-09-26T02:49:09.629Z,10.89
2022-09-26T02:51:51.190Z,10.87
2022-09-26T02:54:27.098Z,10.86
2022-09-26T02:57:12.172Z,10.86
2022-09-26T02:59:59.831Z,10.84
2022-09-26T03:02:51.010Z,10.83
2022-09-26T03:05:27.731Z,10.81
2022-09-26T03:08:01.161Z,10.78
2022-09-26T03:10:30.547Z,10.76
2022-09-26T03:13:04.388Z,10.76
2022-09-26T03:15:33.214Z,10.74
2022-09-26T03:18:03.582Z,10.75
2022-09-26T03:20:30.248Z,10.73
2022-09-26T03:22:56.808Z,10.72
2022-09-26T03:25:27.406Z,10.70
2022-09-26T03:27:54.993Z,10.70
2022-09-26T03:30:22.721Z,10.69
2022-09-26T03:32:49.654Z,10.69
2022-09-26T03:35:16.234Z,10.67
2022-09-26T03:37:42.704Z,10.66
2022-09-26T03:40:11.398Z,10.66
2022-09-26T03:42:38.206Z,10.66
2022-09-26T03:45:08.630Z,10.66
2022-09-26T03:47:35.427Z,10.65
2022-09-26T03:50:02.062Z,10.64
2022-09-26T03:52:29.069Z,10.63
2022-09-26T03:54:55.670Z,10.62
2022-09-26T03:57:22.395Z,10.63
2022-09-26T03:59:49.850Z,10.64
2022-09-26T04:02:17.154Z,10.64
2022-09-26T04:04:43.736Z,10.62
2022-09-26T04:07:10.270Z,10.61
2022-09-26T04:09:36.893Z,10.61
2022-09-26T04:12:03.555Z,10.60
2022-09-26T04:14:31.251Z,10.60
2022-09-26T04:16:58.416Z,10.61
2022-09-26T04:19:26.661Z,10.60
2022-09-26T04:21:53.188Z,10.60
2022-09-26T04:24:21.392Z,10.59
2022-09-26T04:26:47.926Z,10.59
2022-09-26T04:29:15.154Z,10.59
2022-09-26T04:31:42.189Z,10.59
2022-09-26T04:34:09.602Z,10.57
2022-09-26T04:36:36.120Z,10.57
2022-09-26T04:39:02.854Z,10.58
2022-09-26T04:41:29.948Z,10.56
2022-09-26T04:43:58.274Z,10.57
2022-09-26T04:46:30.243Z,10.57
2022-09-26T04:49:00.642Z,10.59
2022-09-26T04:51:28.810Z,10.59
2022-09-26T04:53:56.087Z,10.59
2022-09-26T04:56:25.316Z,10.60
2022-09-26T04:58:54.711Z,10.60
2022-09-26T05:01:22.189Z,10.60
2022-09-26T05:03:49.118Z,10.60
2022-09-26T05:06:17.680Z,10.58
2022-09-26T05:08:46.783Z,10.58
2022-09-26T05:11:17.796Z,10.57
2022-09-26T05:13:45.067Z,10.54
2022-09-26T05:16:14.454Z,10.53
2022-09-26T05:18:41.602Z,10.52
2022-09-26T05:21:08.492Z,10.51
2022-09-26T05:23:54.701Z,10.51
2022-09-26T05:26:28.078Z,10.49
2022-09-26T05:28:56.949Z,10.48
2022-09-26T05:31:29.159Z,10.47
2022-09-26T05:33:59.055Z,10.47
2022-09-26T05:36:26.673Z,10.48
2022-09-26T05:38:53.896Z,10.48
2022-09-26T05:41:20.818Z,10.47
2022-09-26T05:43:50.224Z,10.48
2022-09-26T05:46:16.821Z,10.47
2022-09-26T05:48:43.397Z,10.46
2022-09-26T05:51:13.209Z,10.47
2022-09-26T05:53:41.086Z,10.49
2022-09-26T05:56:07.811Z,10.51
2022-09-26T05:58:37.117Z,10.50
2022-09-26T06:01:09.800Z,10.51
2022-09-26T06:03:37.383Z,10.51
2022-09-26T06:06:08.189Z,10.49
2022-09-26T06:08:36.434Z,10.48
2022-09-26T06:11:04.196Z,10.47
2022-09-26T06:13:33.101Z,10.45
2022-09-26T06:16:08.030Z,10.43
2022-09-26T06:18:35.788Z,10.40
2022-09-26T06:21:09.265Z,10.44
2022-09-26T06:23:36.442Z,10.47
2022-09-26T06:26:05.090Z,10.49
2022-09-26T06:28:31.553Z,10.50
2022-09-26T06:30:58.042Z,10.51
2022-09-26T06:33:24.557Z,10.55
2022-09-26T06:36:05.633Z,10.58
2022-09-26T06:38:32.469Z,10.59
2022-09-26T06:40:59.164Z,10.61
2022-09-26T06:43:25.751Z,10.63
2022-09-26T06:45:53.275Z,10.66
2022-09-26T06:48:25.290Z,10.68
2022-09-26T06:50:53.102Z,10.71
2022-09-26T06:53:19.947Z,10.73
2022-09-26T06:55:46.533Z,10.72
2022-09-26T06:58:13.049Z,10.74
2022-09-26T07:00:40.459Z,10.78
2022-09-26T07:03:08.351Z,10.80
2022-09-26T07:05:36.099Z,10.84
2022-09-26T07:08:03.213Z,10.93
2022-09-26T07:10:30.491Z,10.97
2022-09-26T07:13:05.251Z,11.01
2022-09-26T07:15:33.974Z,11.06
2022-09-26T07:18:02.756Z,11.08
2022-09-26T07:20:34.049Z,11.15
2022-09-26T07:23:02.493Z,11.23
2022-09-26T07:25:31.592Z,11.30
2022-09-26T07:27:58.936Z,11.38
2022-09-26T07:30:25.959Z,11.45
2022-09-26T07:32:52.528Z,11.43
2022-09-26T07:35:19.064Z,11.39
2022-09-26T07:37:46.203Z,11.37
2022-09-26T07:40:12.828Z,11.36
2022-09-26T07:42:39.534Z,11.35
2022-09-26T07:45:24.840Z,11.30
2022-09-26T07:48:11.948Z,11.29
2022-09-26T07:50:38.842Z,11.27
2022-09-26T07:53:05.360Z,11.26
2022-09-26T07:55:32.016Z,11.25
2022-09-26T07:57:59.293Z,11.25
2022-09-26T08:00:26.382Z,11.26
2022-09-26T08:02:53.015Z,11.27
2022-09-26T08:05:24.625Z,11.28
2022-09-26T08:07:51.162Z,11.30
2022-09-26T08:10:21.282Z,11.35
2022-09-26T08:12:48.579Z,11.40
2022-09-26T08:15:15.218Z,11.44
2022-09-26T08:17:43.401Z,11.45
2022-09-26T08:20:11.139Z,11.49
2022-09-26T08:22:37.909Z,11.53
2022-09-26T08:25:06.847Z,11.55
2022-09-26T08:27:34.470Z,11.59
2022-09-26T08:30:02.183Z,11.63
2022-09-26T08:32:32.164Z,11.69
2022-09-26T08:34:58.743Z,11.73
2022-09-26T08:37:29.654Z,11.77
2022-09-26T08:39:56.179Z,11.83
2022-09-26T08:43:04.229Z,11.83
2022-09-26T08:46:04.593Z,11.82
2022-09-26T08:48:59.627Z,11.83
2022-09-26T08:51:38.044Z,11.76
2022-09-26T08:54:16.805Z,11.70
2022-09-26T08:56:54.306Z,11.66
2022-09-26T08:59:34.061Z,11.70
2022-09-26T09:02:05.124Z,11.77
2022-09-26T09:04:41.839Z,11.89
2022-09-26T09:07:21.840Z,11.99
2022-09-26T09:09:49.473Z,11.99
2022-09-26T09:12:32.001Z,12.02
2022-09-26T09:15:25.774Z,12.03
2022-09-26T09:18:13.773Z,12.04
2022-09-26T09:21:27.509Z,11.98
2022-09-26T09:23:59.764Z,11.95
2022-09-26T09:30:16.689Z,11.94
2022-09-26T09:33:06.652Z,12.00
2022-09-26T09:35:40.250Z,11.97
2022-09-26T09:38:12.659Z,11.92
2022-09-26T09:41:05.513Z,11.84
2022-09-26T09:43:50.197Z,11.87
2022-09-26T09:46:23.650Z,11.96
2022-09-26T09:48:56.227Z,12.14
2022-09-26T09:51:39.115Z,12.15
2022-09-26T09:54:24.072Z,12.14
2022-09-26T09:56:59.160Z,12.13
2022-09-26T09:59:46.977Z,12.15
2022-09-26T10:02:28.653Z,12.20
2022-09-26T10:05:33.771Z,12.29
2022-09-26T10:08:00.894Z,12.31
2022-09-26T10:10:36.953Z,12.30
2022-09-26T10:13:06.117Z,12.29
2022-09-26T10:15:36.458Z,12.25
2022-09-26T10:18:24.803Z,12.27
2022-09-26T10:20:57.316Z,12.38
2022-09-26T10:23:32.384Z,12.43
2022-09-26T10:26:08.181Z,12.47
2022-09-26T10:28:44.501Z,12.47
2022-09-26T10:31:21.811Z,12.47
2022-09-26T10:33:56.889Z,12.47
2022-09-26T10:36:32.619Z,12.43
2022-09-26T10:39:21.803Z,12.41
2022-09-26T10:41:49.213Z,12.31
2022-09-26T10:44:30.937Z,12.29
2022-09-26T10:47:00.220Z,12.25
2022-09-26T10:49:46.370Z,12.19
2022-09-26T10:52:23.584Z,12.16
2022-09-26T10:55:12.954Z,12.14
2022-09-26T10:57:48.021Z,12.16
2022-09-26T11:00:21.947Z,12.14
2022-09-26T11:02:54.279Z,12.18
2022-09-26T11:05:39.294Z,12.23
2022-09-26T11:08:08.797Z,12.25
2022-09-26T11:10:38.369Z,12.28
2022-09-26T11:13:26.272Z,12.27
2022-09-26T11:16:10.042Z,12.24
2022-09-26T11:18:59.045Z,12.25
2022-09-26T11:21:30.261Z,12.28
2022-09-26T11:24:24.824Z,12.29
2022-09-26T11:27:00.056Z,12.27
2022-09-26T11:29:41.902Z,12.30
2022-09-26T11:32:15.465Z,12.35
2022-09-26T11:34:42.596Z,12.34
2022-09-26T11:37:15.023Z,12.32
2022-09-26T11:40:07.333Z,12.27
2022-09-26T11:43:09.112Z,12.29
2022-09-26T11:45:48.051Z,12.45
2022-09-26T11:48:29.632Z,12.49
2022-09-26T11:50:59.076Z,12.51
2022-09-26T11:53:40.772Z,12.47
2022-09-26T11:56:07.508Z,12.40
2022-09-26T11:58:44.104Z,12.38
2022-09-26T12:01:21.322Z,12.38
2022-09-26T12:04:12.050Z,12.38
2022-09-26T12:06:45.274Z,12.35
2022-09-26T12:09:34.912Z,12.34
2022-09-26T12:12:39.685Z,12.30
2022-09-26T12:15:29.710Z,12.26
2022-09-26T12:18:06.145Z,12.28
2022-09-26T12:21:12.018Z,12.30
2022-09-26T12:23:58.665Z,12.36
2022-09-26T12:26:53.903Z,12.42
2022-09-26T12:29:32.685Z,12.48
2022-09-26T12:32:05.303Z,12.48
2022-09-26T12:34:43.925Z,12.45
2022-09-26T12:37:59.450Z,12.54
2022-09-26T12:41:02.346Z,12.61
2022-09-26T12:43:42.115Z,12.62
2022-09-26T12:46:30.129Z,12.60
2022-09-26T12:49:34.051Z,12.60
2022-09-26T12:52:17.682Z,12.60
2022-09-26T12:55:09.581Z,12.55
2022-09-26T12:58:17.163Z,12.55
2022-09-26T13:01:25.346Z,12.58
2022-09-26T13:04:13.396Z,12.65
2022-09-26T13:07:17.628Z,12.71
2022-09-26T13:10:09.928Z,12.72
2022-09-26T13:12:47.443Z,12.75
2022-09-26T13:15:37.416Z,12.71
2022-09-26T13:18:17.568Z,12.65
2022-09-26T13:20:58.841Z,12.66
2022-09-26T13:23:38.703Z,12.62
2022-09-26T13:26:14.217Z,12.57
2022-09-26T13:29:16.349Z,12.55
2022-09-26T13:31:48.367Z,12.57
2022-09-26T13:34:22.183Z,12.58
2022-09-26T13:36:49.958Z,12.58
2022-09-26T13:39:28.534Z,12.53
2022-09-26T13:42:07.196Z,12.53
2022-09-26T13:44:51.428Z,12.52
2022-09-26T13:47:41.249Z,12.55
2022-09-26T13:50:38.593Z,12.64
2022-09-26T13:53:38.188Z,12.70
2022-09-26T13:56:36.229Z,12.78
2022-09-26T13:59:11.791Z,12.95
2022-09-26T14:01:42.168Z,13.05
2022-09-26T14:04:19.898Z,13.21
2022-09-26T14:07:29.671Z,13.38
2022-09-26T14:10:02.183Z,13.53
2022-09-26T14:12:50.628Z,13.83
2022-09-26T14:15:22.786Z,14.05
2022-09-26T14:17:52.194Z,14.08
2022-09-26T14:20:27.518Z,13.92
2022-09-26T14:22:56.925Z,13.79
2022-09-26T14:25:45.095Z,13.71
2022-09-26T14:28:38.510Z,13.62
2022-09-26T14:31:22.324Z,13.53
2022-09-26T14:33:50.592Z,13.44
2022-09-26T14:36:33.422Z,13.32
2022-09-26T14:39:00.155Z,13.29
2022-09-26T14:41:33.478Z,13.21
2022-09-26T14:44:06.335Z,13.15
2022-09-26T14:46:35.655Z,13.12
2022-09-26T14:49:06.539Z,13.06
2022-09-26T14:51:37.085Z,13.02
2022-09-26T14:54:05.299Z,12.95
2022-09-26T14:56:43.711Z,12.91
2022-09-26T14:59:16.361Z,12.84
2022-09-26T15:01:44.533Z,12.84
2022-09-26T15:04:20.432Z,12.81
2022-09-26T15:06:50.723Z,12.79
2022-09-26T15:09:25.393Z,12.77
2022-09-26T15:11:58.274Z,12.75
2022-09-26T15:14:48.717Z,12.71
2022-09-26T15:17:27.593Z,12.66
2022-09-26T15:19:57.517Z,12.64
2022-09-26T15:22:27.138Z,12.63
2022-09-26T15:24:55.834Z,12.60
2022-09-26T15:27:29.626Z,12.61
2022-09-26T15:30:15.914Z,12.64
2022-09-26T15:32:42.958Z,12.74
2022-09-26T15:35:13.535Z,12.81
2022-09-26T15:37:41.420Z,12.81
2022-09-26T15:40:24.852Z,12.78
2022-09-26T15:43:09.635Z,12.74
2022-09-26T15:45:56.490Z,12.76
2022-09-26T15:48:32.533Z,12.76
2022-09-26T15:51:02.579Z,12.79
2022-09-26T15:53:44.997Z,12.80
2022-09-26T15:56:17.323Z,12.80
2022-09-26T15:58:55.189Z,12.78
2022-09-26T16:01:25.792Z,12.81
2022-09-26T16:04:20.182Z,12.85
2022-09-26T16:07:03.418Z,12.94
2022-09-26T16:09:34.003Z,12.97
2022-09-26T16:12:03.564Z,12.99
2022-09-26T16:14:40.235Z,12.96
2022-09-26T16:17:35.793Z,13.01
2022-09-26T16:20:30.723Z,13.09
2022-09-26T16:23:03.990Z,13.17
2022-09-26T16:25:47.602Z,13.21
2022-09-26T16:28:15.491Z,13.17
2022-09-26T16:30:59.015Z,13.14
2022-09-26T16:33:31.677Z,13.15
2022-09-26T16:36:09.108Z,13.15
2022-09-26T16:38:36.690Z,13.11
2022-09-26T16:41:31.377Z,13.08
2022-09-26T16:44:33.631Z,13.03
2022-09-26T16:47:03.395Z,13.01
2022-09-26T16:49:48.435Z,12.98
2022-09-26T16:52:20.960Z,12.98
2022-09-26T16:54:48.762Z,12.94
2022-09-26T16:57:22.405Z,12.88
2022-09-26T16:59:50.220Z,12.80
2022-09-26T17:02:17.088Z,12.72
2022-09-26T17:04:44.474Z,12.65
2022-09-26T17:07:14.084Z,12.55
2022-09-26T17:09:42.678Z,12.47
2022-09-26T17:12:12.284Z,12.42
2022-09-26T17:14:41.106Z,12.40
2022-09-26T17:17:16.012Z,12.40
2022-09-26T17:19:47.557Z,12.36
2022-09-26T17:22:19.277Z,12.35
2022-09-26T17:24:47.939Z,12.29
2022-09-26T17:27:18.401Z,12.26
2022-09-26T17:29:48.697Z,12.25
2022-09-26T17:32:32.002Z,12.25
2022-09-26T17:35:03.817Z,12.23
2022-09-26T17:37:30.530Z,12.22
2022-09-26T17:39:57.131Z,12.20
2022-09-26T17:42:24.129Z,12.19
2022-09-26T17:44:51.103Z,12.20
2022-09-26T17:47:19.083Z,12.19
2022-09-26T17:49:57.265Z,12.18
2022-09-26T17:52:31.169Z,12.17
2022-09-26T17:55:05.247Z,12.17
2022-09-26T17:57:34.536Z,12.15
2022-09-26T18:02:44.990Z,12.07
2022-09-26T18:05:21.607Z,12.02
2022-09-26T18:07:51.876Z,11.96
2022-09-26T18:10:24.449Z,11.92
2022-09-26T18:12:57.300Z,11.85
2022-09-26T18:15:25.012Z,11.85
2022-09-26T18:17:51.993Z,11.83
2022-09-26T18:20:20.712Z,11.83
2022-09-26T18:22:49.834Z,11.84
2022-09-26T18:25:19.233Z,11.82
2022-09-26T18:27:46.785Z,11.84
2022-09-26T18:30:15.095Z,11.84
2022-09-26T18:32:43.791Z,11.84
2022-09-26T18:35:16.175Z,11.84
2022-09-26T18:37:43.760Z,11.84
2022-09-26T18:40:14.997Z,11.82
2022-09-26T18:42:45.017Z,11.79
2022-09-26T18:45:14.652Z,11.80
2022-09-26T18:47:45.399Z,11.80
2022-09-26T18:50:34.506Z,11.79
2022-09-26T18:53:01.203Z,11.77
2022-09-26T18:55:46.243Z,11.75
2022-09-26T18:58:29.848Z,11.74
2022-09-26T19:01:08.450Z,11.73
2022-09-26T19:03:38.778Z,11.71
2022-09-26T19:06:13.690Z,11.70
2022-09-26T19:08:43.993Z,11.67
2022-09-26T19:11:18.866Z,11.66
2022-09-26T19:13:51.036Z,11.63
2022-09-26T19:16:18.257Z,11.63
2022-09-26T19:18:45.822Z,11.61
2022-09-26T19:21:18.945Z,11.61
2022-09-26T19:23:46.906Z,11.58
2022-09-26T19:26:33.736Z,11.57
2022-09-26T19:29:01.221Z,11.53
2022-09-26T19:31:29.000Z,11.51
2022-09-26T19:33:56.160Z,11.50
2022-09-26T19:36:22.787Z,11.48
2022-09-26T19:38:49.410Z,11.46
2022-09-26T19:41:16.022Z,11.44
2022-09-26T19:43:42.660Z,11.44
2022-09-26T19:46:14.514Z,11.39
2022-09-26T19:48:44.083Z,11.37
2022-09-26T19:51:14.500Z,11.35
2022-09-26T19:53:41.359Z,11.32
2022-09-26T19:56:08.068Z,11.24
2022-09-26T19:58:35.173Z,11.19
2022-09-26T20:01:11.339Z,11.16
2022-09-26T20:03:41.801Z,11.11
2022-09-26T20:06:21.594Z,11.06
2022-09-26T20:08:49.211Z,11.02
2022-09-26T20:11:17.245Z,10.99
2022-09-26T20:14:07.592Z,10.95
2022-09-26T20:16:38.567Z,10.93
2022-09-26T20:19:06.219Z,10.91
2022-09-26T20:21:33.912Z,10.89
2022-09-26T20:24:00.669Z,10.86
2022-09-26T20:26:29.744Z,10.83
2022-09-26T20:28:57.185Z,10.83
2022-09-26T20:31:26.291Z,10.80
2022-09-26T20:33:53.777Z,10.80
2022-09-26T20:36:27.298Z,10.82
2022-09-26T20:38:56.954Z,10.79
2022-09-26T20:41:29.491Z,10.78
2022-09-26T20:44:02.034Z,10.77
2022-09-26T20:46:40.318Z,10.76
2022-09-26T20:49:12.703Z,10.73
2022-09-26T20:51:39.813Z,10.73
2022-09-26T20:54:19.047Z,10.69
2022-09-26T20:56:47.538Z,10.71
2022-09-26T20:59:14.369Z,10.70
2022-09-26T21:01:41.030Z,10.71
2022-09-26T21:04:14.125Z,10.70
2022-09-26T21:06:41.233Z,10.69
2022-09-26T21:09:19.479Z,10.69
2022-09-26T21:11:48.850Z,10.68
2022-09-26T21:14:16.451Z,10.70
2022-09-26T21:16:46.637Z,10.67
2022-09-26T21:19:20.866Z,10.67
2022-09-26T21:21:49.699Z,10.65
2022-09-26T21:24:24.109Z,10.64
2022-09-26T21:26:51.530Z,10.63
2022-09-26T21:29:18.370Z,10.63
2022-09-26T21:31:49.641Z,10.63
2022-09-26T21:34:24.328Z,10.64
2022-09-26T21:36:53.654Z,10.61
2022-09-26T21:39:20.183Z,10.59
2022-09-26T21:41:49.560Z,10.57
2022-09-26T21:44:42.758Z,10.56
2022-09-26T21:47:10.152Z,10.55
2022-09-26T21:49:36.610Z,10.53
2022-09-26T21:52:18.648Z,10.51
2022-09-26T21:54:45.258Z,10.51
2022-09-26T21:57:35.020Z,10.48
2022-09-26T22:00:04.752Z,10.48
2022-09-26T22:02:31.269Z,10.47
2022-09-26T22:04:57.747Z,10.44
2022-09-26T22:07:24.274Z,10.44
2022-09-26T22:09:50.796Z,10.44
2022-09-26T22:12:17.339Z,10.42
2022-09-26T22:14:43.876Z,10.39
2022-09-26T22:17:10.443Z,10.39
2022-09-26T22:19:37.034Z,10.38
2022-09-26T22:22:04.059Z,10.37
2022-09-26T22:24:30.610Z,10.37
2022-09-26T22:26:57.090Z,10.35
2022-09-26T22:29:23.593Z,10.33
2022-09-26T22:31:50.094Z,10.32
2022-09-26T22:34:16.658Z,10.30
2022-09-26T22:36:43.230Z,10.28
2022-09-26T22:39:09.772Z,10.27
2022-09-26T22:41:36.247Z,10.26
2022-09-26T22:44:04.010Z,10.24
2022-09-26T22:46:33.716Z,10.24
2022-09-26T22:49:00.562Z,10.25
2022-09-26T22:51:27.596Z,10.23
2022-09-26T22:53:54.488Z,10.22
2022-09-26T22:56:21.257Z,10.21
2022-09-26T22:58:50.056Z,10.21
2022-09-26T23:01:25.188Z,10.19
2022-09-26T23:03:53.094Z,10.18
2022-09-26T23:06:21.474Z,10.16
2022-09-26T23:08:48.104Z,10.15
2022-09-26T23:11:14.834Z,10.13
2022-09-26T23:13:41.388Z,10.12
2022-09-26T23:16:11.004Z,10.08
2022-09-26T23:18:39.541Z,10.05
2022-09-26T23:21:17.592Z,10.03
2022-09-26T23:23:46.120Z,10.01
2022-09-26T23:26:23.067Z,9.97
2022-09-26T23:28:51.002Z,9.96
2022-09-26T23:31:18.008Z,9.91
2022-09-26T23:33:44.571Z,9.89
2022-09-26T23:36:11.636Z,9.88
2022-09-26T23:38:40.011Z,9.86
2022-09-26T23:41:08.617Z,9.83
2022-09-26T23:43:35.388Z,9.84
2022-09-26T23:46:02.102Z,9.83
2022-09-26T23:48:28.685Z,9.83
2022-09-26T23:50:55.346Z,9.80
2022-09-26T23:53:22.259Z,9.77
2022-09-26T23:55:48.819Z,9.75
2022-09-26T23:58:15.355Z,9.72
